Main page
METAR-TAF:

METAR-TAF

Airports :

Les Eplatures Airport

La Chaux-de-Fonds, Switzerland

latitude: 47-05-03N, longitude: 006-47-37E, elevation: 1027 m

Current weather observation

The report was made 31 minutes ago, at 13:50 UTC
Wind 11 kt from the South/Southwest, varying between South and West/Southwest
Temperature 21°C
Humidity 38%
Pressure 1015 hPa
Visibility 10 km or more
no clouds below 1500 m and no cumulonimbus

METAR: LSGC 141350Z 21011KT 170V250 CAVOK 21/06 Q1015

Time: 16:21 (14:21 UTC)

Forecast

The report was made 2 hours and 56 minutes ago, at 11:25 UTC
Forecast valid from 14 at 12 UTC to 14 at 21 UTC
Wind 12 kt from the Southwest
Visibility 10 km or more
no clouds below 1500 m and no cumulonimbus

TAF: LSGC 141125Z 1412/1421 22012KT CAVOK

Weather observations and forecasts of more than 4000 airports (METAR and TAF reports).

The available stations are represented by yellow and red dots on the map.

Hover mouse over dot to see the name of the station.

Then click to see weather observations and forecasts.

To change the map : click on the green buttons with a black cross to zoom in, on the green button with a dash to zoom out, or on the green arrows for adjacent maps.


METAR-TAF: